Time;durP1;ratioP1;P1;durP2;ratioP2;P2;SDS_P1;SDS_P2;PMS_P1;PMS_P2;Temp;Humidity;BMP_temperature;BMP_pressure;BME280_temperature;BME280_humidity;BME280_pressure;Samples;Min_cycle;Max_cycle;Signal;HPM_P1;HPM_P2
2024/03/19 00:00:11;;;;;;;11.00;5.60;;;;;;;8.77;69.26;94278.13;5104925;28;20051;-76
2024/03/19 00:02:37;;;;;;;9.05;5.50;;;;;;;8.79;69.15;94277.06;5075988;28;20571;-76
2024/03/19 00:05:03;;;;;;;9.65;5.90;;;;;;;8.87;68.85;94281.59;5083051;28;20070;-77
2024/03/19 00:07:28;;;;;;;12.30;6.18;;;;;;;8.87;68.03;94277.22;5098873;28;20035;-77
2024/03/19 00:09:54;;;;;;;8.23;5.20;;;;;;;8.89;68.43;94280.53;5094323;28;20032;-76
2024/03/19 00:12:19;;;;;;;9.65;5.95;;;;;;;8.76;69.28;94250.59;5110722;28;20482;-76
2024/03/19 00:14:44;;;;;;;7.88;4.78;;;;;;;8.95;70.52;94269.63;5111812;28;20031;-77
2024/03/19 00:17:10;;;;;;;7.93;5.22;;;;;;;8.92;70.80;94267.31;5110817;28;20050;-76
2024/03/19 00:19:35;;;;;;;12.13;5.45;;;;;;;8.85;71.30;94261.00;5111170;28;20035;-76
2024/03/19 00:22:00;;;;;;;8.20;5.13;;;;;;;9.00;72.33;94273.59;5110754;28;20039;-77
2024/03/19 00:24:26;;;;;;;9.48;5.63;;;;;;;8.78;74.07;94262.47;5076678;28;20040;-76
2024/03/19 00:26:51;;;;;;;6.90;5.43;;;;;;;8.91;75.17;94276.03;5111196;28;20454;-76
2024/03/19 00:29:17;;;;;;;11.93;6.25;;;;;;;8.71;75.28;94269.94;5111972;28;20519;-77
2024/03/19 00:31:42;;;;;;;9.27;5.47;;;;;;;8.65;75.52;94275.63;5090181;28;20028;-77
2024/03/19 00:34:08;;;;;;;12.20;5.50;;;;;;;8.60;74.84;94275.19;5092236;28;20024;-76
2024/03/19 00:36:34;;;;;;;10.30;5.60;;;;;;;8.34;77.50;94274.75;5100561;28;20031;-76
2024/03/19 00:38:59;;;;;;;13.93;6.07;;;;;;;8.58;78.98;94263.31;5124099;27;20059;-76
2024/03/19 00:41:26;;;;;;;11.70;7.15;;;;;;;8.28;79.92;94244.19;5103049;28;20036;-77
2024/03/19 00:43:52;;;;;;;10.25;6.43;;;;;;;8.20;80.78;94251.78;5094217;28;20051;-77
2024/03/19 00:46:19;;;;;;;12.75;6.97;;;;;;;8.18;81.45;94258.81;5117596;27;20409;-76
2024/03/19 00:48:44;;;;;;;9.73;5.78;;;;;;;8.49;81.90;94265.72;5127053;27;20036;-77
2024/03/19 00:51:12;;;;;;;12.27;6.00;;;;;;;8.48;81.62;94256.31;5112074;28;20019;-77
2024/03/19 00:53:38;;;;;;;16.45;6.82;;;;;;;8.47;81.40;94248.69;5112768;28;20034;-76
2024/03/19 00:56:03;;;;;;;10.63;5.93;;;;;;;8.54;80.63;94246.41;5110805;27;20032;-76
2024/03/19 00:58:29;;;;;;;11.50;6.28;;;;;;;8.56;81.98;94254.88;5112483;28;20050;-77
2024/03/19 01:00:54;;;;;;;10.10;6.43;;;;;;;8.42;82.49;94251.66;5123581;27;20031;-77
2024/03/19 01:03:20;;;;;;;12.25;5.65;;;;;;;8.41;81.79;94257.81;5110643;28;20039;-77
2024/03/19 01:05:46;;;;;;;7.72;5.30;;;;;;;8.17;82.29;94260.59;5111920;28;20023;-76
2024/03/19 01:08:13;;;;;;;14.52;6.88;;;;;;;8.06;82.05;94260.66;5111975;28;20031;-76
2024/03/19 01:10:38;;;;;;;9.98;6.30;;;;;;;8.09;81.74;94252.66;5094298;28;20024;-77
2024/03/19 01:13:05;;;;;;;8.73;5.40;;;;;;;7.90;82.05;94242.16;5118105;28;20054;-76
2024/03/19 01:15:31;;;;;;;9.00;5.90;;;;;;;7.94;83.41;94251.28;5130854;28;20035;-76
2024/03/19 01:17:56;;;;;;;10.68;6.13;;;;;;;7.92;83.51;94241.09;5129332;27;20027;-77
2024/03/19 01:20:22;;;;;;;12.00;6.07;;;;;;;7.83;82.44;94232.31;5126368;27;20054;-76
2024/03/19 01:22:47;;;;;;;7.53;5.22;;;;;;;7.98;82.39;94235.41;5130758;28;20046;-77
2024/03/19 01:25:13;;;;;;;10.15;5.72;;;;;;;8.03;81.93;94243.63;5128215;27;20027;-76
2024/03/19 01:27:38;;;;;;;8.68;5.38;;;;;;;7.99;81.86;94221.53;5111672;28;20039;-77
2024/03/19 01:30:04;;;;;;;6.93;4.88;;;;;;;8.04;81.69;94237.50;5108382;28;20027;-77
2024/03/19 01:32:29;;;;;;;8.02;5.28;;;;;;;8.06;81.39;94239.97;5127265;27;20031;-77
2024/03/19 01:34:55;;;;;;;8.07;5.28;;;;;;;8.12;81.34;94238.63;5116077;27;20031;-77
2024/03/19 01:37:21;;;;;;;7.15;4.68;;;;;;;8.15;81.24;94226.25;5133798;27;20038;-77
2024/03/19 01:39:46;;;;;;;6.93;4.53;;;;;;;8.11;80.61;94229.22;5133664;27;20047;-77
2024/03/19 01:42:12;;;;;;;7.30;4.53;;;;;;;7.97;81.23;94228.59;5135646;27;20488;-77
2024/03/19 01:44:37;;;;;;;6.47;4.45;;;;;;;7.76;81.66;94201.91;5097093;27;20405;-77
2024/03/19 01:47:04;;;;;;;7.15;4.43;;;;;;;7.91;81.46;94216.19;5122038;27;20027;-77
2024/03/19 01:49:29;;;;;;;9.18;6.60;;;;;;;7.63;81.62;94198.66;5113018;28;20122;-77
2024/03/19 01:51:55;;;;;;;8.43;5.05;;;;;;;7.99;82.11;94211.16;5129147;27;20039;-77
2024/03/19 01:54:20;;;;;;;7.65;5.53;;;;;;;8.01;82.07;94209.28;5114154;28;20050;-77
2024/03/19 01:56:46;;;;;;;10.30;7.60;;;;;;;7.98;82.51;94208.72;5096751;28;20032;-78
2024/03/19 01:59:11;;;;;;;9.57;6.78;;;;;;;8.12;81.74;94213.59;5120991;27;20031;-77
2024/03/19 02:01:37;;;;;;;7.47;5.15;;;;;;;8.17;82.10;94219.19;5136090;27;20049;-77
2024/03/19 02:04:02;;;;;;;6.78;4.97;;;;;;;8.14;81.53;94213.47;5117362;27;20031;-76
2024/03/19 02:06:28;;;;;;;10.38;8.13;;;;;;;7.98;81.85;94212.13;5117376;27;20019;-77
2024/03/19 02:09:02;;;;;;;9.88;7.40;;;;;;;7.99;82.12;94213.75;5133911;27;20054;-77
2024/03/19 02:11:27;;;;;;;8.40;7.20;;;;;;;7.89;81.99;94207.72;5113917;28;20031;-77
2024/03/19 02:13:53;;;;;;;10.15;6.80;;;;;;;7.59;82.80;94183.41;5124633;27;20428;-77
2024/03/19 02:16:18;;;;;;;7.90;4.43;;;;;;;7.95;83.30;94204.63;5133615;27;20076;-77
2024/03/19 02:18:44;;;;;;;4.93;3.90;;;;;;;7.99;83.13;94211.16;5133003;27;20487;-77
2024/03/19 02:21:09;;;;;;;5.18;3.45;;;;;;;8.02;82.40;94190.25;5115738;27;20022;-77
2024/03/19 02:23:36;;;;;;;3.88;3.20;;;;;;;8.00;82.17;94193.91;5099224;27;20030;-76
2024/03/19 02:26:01;;;;;;;6.80;3.00;;;;;;;7.79;82.83;94194.72;5112694;28;20027;-76
2024/03/19 02:28:27;;;;;;;3.38;2.70;;;;;;;7.65;82.45;94176.09;5126140;27;20057;-77
2024/03/19 02:30:52;;;;;;;4.63;2.83;;;;;;;7.69;81.70;94191.25;5134603;27;20492;-76
2024/03/19 02:33:17;;;;;;;5.53;2.90;;;;;;;7.57;82.32;94174.94;5115597;27;20047;-77
2024/03/19 02:35:43;;;;;;;4.05;3.10;;;;;;;7.63;82.23;94201.25;5134655;27;20026;-77
2024/03/19 02:38:08;;;;;;;4.90;2.78;;;;;;;7.57;81.70;94199.97;5132384;27;20425;-77
2024/03/19 02:40:33;;;;;;;4.55;3.08;;;;;;;7.61;82.16;94196.22;5132961;27;20447;-77
2024/03/19 02:42:59;;;;;;;3.40;2.40;;;;;;;7.67;80.73;94197.50;5134130;27;20496;-76
2024/03/19 02:45:25;;;;;;;4.28;2.25;;;;;;;7.51;81.06;94188.38;5134175;27;20046;-77
2024/03/19 02:47:51;;;;;;;3.28;2.30;;;;;;;7.48;80.94;94206.72;5132330;27;20622;-77
2024/03/19 02:50:16;;;;;;;3.33;2.60;;;;;;;7.46;80.21;94207.78;5133690;27;20035;-77
2024/03/19 02:52:42;;;;;;;3.13;2.25;;;;;;;7.56;80.42;94200.94;5132740;27;20030;-77
2024/03/19 02:55:07;;;;;;;3.22;2.00;;;;;;;7.63;79.68;94204.66;5132498;27;20027;-76
2024/03/19 02:57:33;;;;;;;6.03;2.38;;;;;;;7.61;80.13;94191.88;5130839;27;20038;-77
2024/03/19 02:59:58;;;;;;;4.18;2.80;;;;;;;7.69;80.15;94209.34;5132804;27;20030;-77
2024/03/19 03:02:24;;;;;;;3.10;2.30;;;;;;;7.46;80.71;94198.25;5110886;28;20482;-77
2024/03/19 03:04:49;;;;;;;4.07;2.85;;;;;;;7.37;80.97;94168.00;5126030;27;20031;-77
2024/03/19 03:07:15;;;;;;;4.55;3.28;;;;;;;7.55;81.03;94201.84;5132925;27;20046;-76
2024/03/19 03:09:40;;;;;;;4.55;2.95;;;;;;;7.60;80.42;94192.81;5114254;27;20015;-77
2024/03/19 03:12:05;;;;;;;3.83;3.08;;;;;;;7.63;80.02;94202.06;5132307;27;20421;-76
2024/03/19 03:14:31;;;;;;;5.13;3.05;;;;;;;7.49;80.69;94179.91;5115118;27;20054;-77
2024/03/19 03:16:56;;;;;;;4.32;2.90;;;;;;;7.68;79.72;94207.69;5131642;27;20096;-77
2024/03/19 03:19:22;;;;;;;3.38;2.75;;;;;;;7.60;79.36;94200.56;5096520;27;20036;-77
2024/03/19 03:21:47;;;;;;;3.90;2.80;;;;;;;7.45;79.88;94175.94;5115182;27;20046;-77
2024/03/19 03:24:13;;;;;;;3.10;2.15;;;;;;;7.52;80.30;94184.88;5114938;27;20496;-77
2024/03/19 03:26:39;;;;;;;3.08;2.30;;;;;;;7.68;80.13;94188.78;5130494;27;20111;-77
2024/03/19 03:29:04;;;;;;;6.63;2.95;;;;;;;7.41;80.24;94158.22;5131797;27;20031;-77
2024/03/19 03:31:31;;;;;;;4.65;3.50;;;;;;;7.54;80.03;94177.78;5132082;27;20033;-77
2024/03/19 03:33:56;;;;;;;5.05;3.60;;;;;;;7.69;79.97;94188.66;5114663;27;20031;-77
2024/03/19 03:36:23;;;;;;;5.07;3.88;;;;;;;7.59;80.13;94188.56;5110843;28;20019;-77
2024/03/19 03:38:48;;;;;;;6.63;3.40;;;;;;;7.25;80.52;94184.50;5110411;27;20047;-77
2024/03/19 03:41:14;;;;;;;5.35;3.13;;;;;;;7.29;80.65;94198.78;5131462;27;20096;-77
2024/03/19 03:43:39;;;;;;;3.83;2.97;;;;;;;7.34;80.79;94204.41;5132790;27;20091;-77
2024/03/19 03:46:04;;;;;;;3.70;3.00;;;;;;;7.24;80.83;94196.56;5094317;28;20562;-77
2024/03/19 03:48:30;;;;;;;3.63;3.10;;;;;;;7.25;81.21;94200.00;5119822;27;20031;-77
2024/03/19 03:50:55;;;;;;;4.05;2.90;;;;;;;7.30;80.84;94197.84;5131161;27;20426;-77
2024/03/19 03:53:21;;;;;;;4.30;3.05;;;;;;;7.24;80.91;94182.81;5110922;28;20044;-77
2024/03/19 03:55:46;;;;;;;4.10;2.95;;;;;;;7.47;80.62;94205.09;5112664;27;20031;-77
2024/03/19 03:58:11;;;;;;;4.22;2.95;;;;;;;7.37;80.96;94196.41;5110359;27;20042;-76
2024/03/19 04:00:39;;;;;;;3.60;2.85;;;;;;;7.26;80.88;94207.59;5113564;27;20039;-77
2024/03/19 04:03:04;;;;;;;4.13;2.78;;;;;;;7.24;81.07;94203.50;5131177;27;20182;-77
2024/03/19 04:05:30;;;;;;;4.88;2.92;;;;;;;7.30;81.18;94208.16;5131383;27;20454;-77
2024/03/19 04:07:55;;;;;;;4.05;2.92;;;;;;;7.38;81.06;94203.22;5131420;27;20030;-77
2024/03/19 04:10:21;;;;;;;3.65;2.75;;;;;;;7.43;80.95;94185.59;5132249;27;20444;-77
2024/03/19 04:12:48;;;;;;;4.50;3.20;;;;;;;7.52;80.95;94196.94;5131034;27;20027;-77
2024/03/19 04:15:13;;;;;;;4.43;2.95;;;;;;;7.59;80.85;94206.66;5132333;27;20065;-77
2024/03/19 04:17:39;;;;;;;5.28;3.47;;;;;;;7.58;81.19;94202.47;5131564;27;20405;-77
2024/03/19 04:20:05;;;;;;;4.85;3.67;;;;;;;7.68;80.67;94212.03;5113968;27;20457;-77
2024/03/19 04:22:33;;;;;;;4.75;3.40;;;;;;;7.71;80.29;94219.53;5114240;27;20023;-77
2024/03/19 04:24:58;;;;;;;22.83;15.77;;;;;;;7.71;79.86;94222.13;5114013;27;20031;-77
2024/03/19 04:27:24;;;;;;;7.82;5.40;;;;;;;7.61;79.68;94222.88;5113204;28;20092;-77
2024/03/19 04:29:50;;;;;;;4.63;3.42;;;;;;;7.50;79.83;94224.69;5130678;27;20484;-77
2024/03/19 04:32:15;;;;;;;5.32;3.60;;;;;;;7.45;80.56;94232.00;5130896;27;20496;-76
2024/03/19 04:34:41;;;;;;;4.45;3.38;;;;;;;7.57;79.92;94231.00;5111817;27;20081;-76
2024/03/19 04:37:07;;;;;;;6.78;3.85;;;;;;;7.55;79.81;94225.97;5130253;27;20038;-77
2024/03/19 04:39:32;;;;;;;3.72;3.33;;;;;;;7.68;79.22;94240.47;5110159;28;20410;-77
2024/03/19 04:41:58;;;;;;;4.78;3.72;;;;;;;7.67;79.98;94225.94;5110253;28;20019;-76
2024/03/19 04:44:23;;;;;;;4.72;3.33;;;;;;;7.65;79.27;94236.38;5109884;28;20031;-77
2024/03/19 04:46:48;;;;;;;4.15;3.15;;;;;;;7.50;80.62;94229.88;5111848;28;20024;-77
2024/03/19 04:49:14;;;;;;;4.45;3.22;;;;;;;7.72;79.60;94239.31;5111501;28;20028;-77
2024/03/19 04:51:39;;;;;;;4.20;3.15;;;;;;;7.53;80.57;94243.34;5092454;28;20034;-77
2024/03/19 04:54:05;;;;;;;3.85;3.20;;;;;;;7.83;80.99;94242.66;5075446;28;20048;-77
2024/03/19 04:56:30;;;;;;;5.35;3.70;;;;;;;7.78;80.42;94244.78;5109796;28;20024;-76
2024/03/19 04:58:55;;;;;;;4.95;3.00;;;;;;;7.60;80.02;94249.69;5110929;28;20554;-77
2024/03/19 05:01:21;;;;;;;4.32;2.90;;;;;;;7.41;78.76;94210.75;5109863;28;20035;-77
2024/03/19 05:03:46;;;;;;;5.32;3.05;;;;;;;7.69;78.35;94248.13;5088690;28;20031;-77
2024/03/19 05:06:12;;;;;;;5.30;2.90;;;;;;;7.69;78.62;94255.03;5104703;28;20478;-77
2024/03/19 05:08:38;;;;;;;4.18;3.00;;;;;;;7.73;78.20;94256.44;5110029;28;20405;-77
2024/03/19 05:11:03;;;;;;;19.92;10.70;;;;;;;7.72;78.22;94260.81;5076155;28;20040;-77
2024/03/19 05:13:29;;;;;;;18.23;11.18;;;;;;;7.72;78.76;94254.81;5092585;28;20072;-77
2024/03/19 05:15:55;;;;;;;8.85;5.20;;;;;;;7.60;79.24;94241.94;5126258;28;20030;-76
2024/03/19 05:18:21;;;;;;;7.72;5.35;;;;;;;7.61;80.34;94256.50;5088519;28;20049;-77
2024/03/19 05:20:46;;;;;;;4.22;3.30;;;;;;;7.96;80.06;94257.97;5089588;28;20408;-77
2024/03/19 05:23:11;;;;;;;4.63;3.45;;;;;;;8.12;79.85;94247.22;5101102;28;20020;-77
2024/03/19 05:25:37;;;;;;;7.18;3.40;;;;;;;8.30;79.51;94265.56;5104658;28;20028;-77
2024/03/19 05:28:03;;;;;;;6.07;4.40;;;;;;;8.41;79.56;94267.31;5101433;28;20412;-77
2024/03/19 05:30:30;;;;;;;6.30;4.68;;;;;;;8.35;78.97;94267.78;5095668;28;20088;-76
2024/03/19 05:32:55;;;;;;;8.75;4.40;;;;;;;8.41;78.57;94272.47;5104453;28;20071;-76
2024/03/19 05:35:21;;;;;;;8.40;6.38;;;;;;;8.54;78.04;94272.28;5110959;28;20130;-77
2024/03/19 05:37:46;;;;;;;8.23;5.40;;;;;;;8.53;77.74;94268.09;5115859;27;20420;-77
2024/03/19 05:40:31;;;;;;;7.95;6.70;;;;;;;8.35;78.06;94271.19;5127003;27;20102;-75
2024/03/19 05:42:57;;;;;;;6.63;5.28;;;;;;;8.49;78.78;94276.06;5131959;27;20512;-77
2024/03/19 05:45:22;;;;;;;7.32;5.20;;;;;;;8.56;79.14;94268.63;5142937;27;20053;-76
2024/03/19 05:47:48;;;;;;;8.40;5.32;;;;;;;8.39;79.39;94270.03;5151843;27;20034;-77
2024/03/19 05:50:13;;;;;;;9.23;6.65;;;;;;;8.63;78.16;94279.28;5102096;28;20035;-77
2024/03/19 05:52:39;;;;;;;7.85;5.40;;;;;;;8.56;79.15;94281.59;5111213;28;20508;-77
2024/03/19 05:55:06;;;;;;;8.38;6.20;;;;;;;8.34;79.93;94282.50;5114912;27;20033;-77
2024/03/19 05:57:31;;;;;;;7.80;6.40;;;;;;;8.46;80.14;94278.91;5116137;27;20500;-77
2024/03/19 05:59:56;;;;;;;22.17;14.55;;;;;;;8.63;79.11;94282.69;5134315;27;20038;-77
2024/03/19 06:02:22;;;;;;;12.50;6.78;;;;;;;8.49;78.77;94245.00;5129597;27;20027;-77
2024/03/19 06:04:47;;;;;;;7.60;5.30;;;;;;;8.71;78.38;94289.81;5133182;27;20034;-77
2024/03/19 06:07:13;;;;;;;7.25;5.30;;;;;;;8.66;78.47;94284.22;5119924;28;20035;-76
2024/03/19 06:09:43;;;;;;;7.93;4.80;;;;;;;8.62;78.49;94286.25;5130758;27;20019;-77
2024/03/19 06:12:11;;;;;;;8.50;5.63;;;;;;;8.70;78.41;94283.84;5117972;27;20057;-76
2024/03/19 06:14:37;;;;;;;9.80;6.47;;;;;;;8.65;78.54;94295.53;5118321;27;20023;-77
2024/03/19 06:17:02;;;;;;;7.53;5.80;;;;;;;8.48;78.82;94274.44;5119902;27;20030;-77
2024/03/19 06:19:28;;;;;;;9.07;6.32;;;;;;;8.47;79.68;94290.94;5137319;27;20031;-77
2024/03/19 06:21:53;;;;;;;8.75;6.18;;;;;;;8.32;80.40;94291.34;5120060;27;20476;-78
2024/03/19 06:24:19;;;;;;;11.10;7.45;;;;;;;8.48;79.92;94294.34;5120397;27;20042;-78
2024/03/19 06:26:44;;;;;;;11.57;7.55;;;;;;;8.45;79.69;94305.75;5137200;27;20031;-77
2024/03/19 06:29:10;;;;;;;12.65;7.38;;;;;;;8.28;80.25;94308.88;5155658;27;20480;-79
2024/03/19 06:31:35;;;;;;;16.70;12.05;;;;;;;8.31;80.63;94313.81;5116251;27;20031;-78
2024/03/19 06:34:01;;;;;;;14.30;10.75;;;;;;;8.42;81.27;94318.97;5115235;27;20035;-78
2024/03/19 06:36:26;;;;;;;8.27;6.40;;;;;;;8.23;81.28;94314.44;5118882;27;20031;-78
2024/03/19 06:38:52;;;;;;;12.75;9.27;;;;;;;8.29;82.25;94318.28;5136812;27;20062;-77
2024/03/19 06:41:18;;;;;;;8.95;6.45;;;;;;;8.23;82.22;94324.78;5137101;27;20041;-78
2024/03/19 06:43:43;;;;;;;8.13;5.93;;;;;;;8.03;82.20;94310.88;5136980;27;20026;-78
2024/03/19 06:46:09;;;;;;;8.50;6.22;;;;;;;7.83;82.46;94275.47;5136925;27;20034;-78
2024/03/19 06:48:34;;;;;;;10.65;6.57;;;;;;;8.07;83.82;94332.94;5155094;27;20039;-78
2024/03/19 06:51:00;;;;;;;10.38;8.23;;;;;;;7.95;84.27;94327.97;5136879;27;20393;-78
2024/03/19 06:53:27;;;;;;;10.27;8.20;;;;;;;7.70;84.07;94335.06;5119655;27;20393;-78
2024/03/19 06:55:53;;;;;;;11.57;7.63;;;;;;;7.68;84.73;94344.72;5120091;27;20026;-78
2024/03/19 06:58:18;;;;;;;10.52;8.15;;;;;;;7.63;83.98;94346.00;5136867;27;20084;-78
2024/03/19 07:00:44;;;;;;;10.13;7.93;;;;;;;7.75;84.16;94338.13;5155041;27;20029;-78
2024/03/19 07:03:10;;;;;;;9.40;7.13;;;;;;;7.68;84.48;94351.66;5154935;27;20026;-78
2024/03/19 07:05:36;;;;;;;10.38;8.50;;;;;;;7.57;84.22;94339.56;5136557;27;20477;-78
2024/03/19 07:08:03;;;;;;;14.57;10.40;;;;;;;7.42;84.32;94339.00;5154882;27;20042;-78
2024/03/19 07:10:28;;;;;;;16.23;13.05;;;;;;;7.45;83.53;94336.19;5102626;27;20037;-78
2024/03/19 07:12:54;;;;;;;10.40;9.25;;;;;;;7.52;83.31;94358.03;5154862;27;20027;-77
2024/03/19 07:15:19;;;;;;;15.18;10.15;;;;;;;7.44;84.20;94339.72;5154748;27;20026;-78
2024/03/19 07:17:51;;;;;;;13.63;12.10;;;;;;;7.41;84.83;94352.88;5136255;27;20107;-78
2024/03/19 07:20:18;;;;;;;17.52;12.40;;;;;;;7.69;83.97;94361.88;5137247;27;20123;-78
2024/03/19 07:22:44;;;;;;;13.80;10.45;;;;;;;7.54;84.13;94368.25;5118411;27;20062;-78
2024/03/19 07:25:10;;;;;;;13.95;10.35;;;;;;;7.64;83.81;94368.34;5117976;27;20109;-78
2024/03/19 07:27:40;;;;;;;12.25;10.20;;;;;;;7.50;84.13;94370.25;5118539;27;20549;-77
2024/03/19 07:30:06;;;;;;;13.95;10.95;;;;;;;7.48;83.47;94382.47;5136789;27;20097;-78
2024/03/19 07:32:32;;;;;;;12.00;10.23;;;;;;;7.45;82.71;94381.88;5101757;27;20062;-78
2024/03/19 07:34:57;;;;;;;13.77;9.65;;;;;;;7.44;82.73;94380.22;5118162;27;20039;-78
2024/03/19 07:37:23;;;;;;;14.05;10.52;;;;;;;7.16;83.15;94378.03;5101585;27;20041;-78
2024/03/19 07:39:48;;;;;;;12.98;10.43;;;;;;;7.27;83.12;94390.13;5136007;27;20057;-78
2024/03/19 07:42:13;;;;;;;14.77;11.13;;;;;;;7.39;83.80;94393.53;5118572;27;20031;-78
2024/03/19 07:44:39;;;;;;;16.63;12.60;;;;;;;7.09;83.81;94356.16;5118189;27;20022;-78
2024/03/19 07:47:07;;;;;;;14.95;11.07;;;;;;;7.44;82.85;94401.75;5118913;27;20029;-76
2024/03/19 07:49:34;;;;;;;16.77;11.05;;;;;;;7.22;83.02;94376.72;5134916;27;20030;-78
2024/03/19 07:51:59;;;;;;;22.48;15.05;;;;;;;7.27;82.28;94404.78;5154052;27;20047;-78
2024/03/19 07:54:27;;;;;;;18.92;11.60;;;;;;;7.21;83.55;94400.09;5135050;27;20596;-79
2024/03/19 07:56:56;;;;;;;28.08;17.80;;;;;;;7.20;83.29;94417.34;5135594;27;20023;-78
2024/03/19 07:59:21;;;;;;;19.98;13.35;;;;;;;6.96;83.24;94377.88;5101450;27;20042;-78
2024/03/19 08:01:49;;;;;;;16.17;12.10;;;;;;;7.16;83.78;94398.69;5135478;27;20095;-78
2024/03/19 08:04:15;;;;;;;16.05;12.77;;;;;;;7.19;83.80;94407.13;5135645;27;20511;-78
2024/03/19 08:06:40;;;;;;;16.10;12.98;;;;;;;7.41;83.40;94412.31;5153974;27;20067;-78
2024/03/19 08:09:06;;;;;;;19.65;15.75;;;;;;;7.39;83.69;94416.78;5135221;27;20033;-78
2024/03/19 08:11:31;;;;;;;17.08;12.73;;;;;;;7.27;83.86;94410.78;5118222;27;20034;-78
2024/03/19 08:13:57;;;;;;;13.50;10.77;;;;;;;7.32;82.91;94423.34;5100768;27;20042;-79
2024/03/19 08:16:22;;;;;;;16.33;11.52;;;;;;;7.29;83.63;94421.81;5153877;27;20019;-78
2024/03/19 08:18:48;;;;;;;15.20;10.65;;;;;;;7.26;82.50;94416.88;5135195;27;20465;-79
2024/03/19 08:21:14;;;;;;;12.77;10.27;;;;;;;7.21;82.23;94418.16;5118078;27;20026;-78
2024/03/19 08:23:40;;;;;;;14.05;10.95;;;;;;;7.32;81.84;94420.75;5135046;27;20034;-79
2024/03/19 08:26:05;;;;;;;13.32;9.90;;;;;;;7.36;82.72;94414.44;5118094;27;20078;-78
2024/03/19 08:28:32;;;;;;;11.43;9.43;;;;;;;7.20;82.98;94432.03;5135068;27;20030;-78
2024/03/19 08:30:58;;;;;;;13.82;8.98;;;;;;;7.23;81.77;94424.88;5118302;27;20027;-78
2024/03/19 08:33:23;;;;;;;10.55;8.73;;;;;;;7.11;82.01;94426.63;5134510;27;20033;-78
2024/03/19 08:35:49;;;;;;;16.85;10.75;;;;;;;6.99;82.58;94430.09;5153507;27;20026;-79
2024/03/19 08:38:14;;;;;;;13.18;9.38;;;;;;;6.99;82.87;94437.03;5152737;27;20046;-79
2024/03/19 08:40:39;;;;;;;22.02;12.80;;;;;;;7.03;83.13;94434.13;5134792;27;20042;-78
2024/03/19 08:43:05;;;;;;;15.50;10.05;;;;;;;7.01;83.38;94424.84;5152826;27;20027;-78
2024/03/19 08:45:30;;;;;;;13.15;9.48;;;;;;;7.01;83.12;94430.81;5152977;27;20027;-79
2024/03/19 08:47:56;;;;;;;14.55;11.35;;;;;;;6.85;83.32;94440.63;5117484;27;20091;-79
2024/03/19 08:50:21;;;;;;;14.68;11.23;;;;;;;6.59;82.93;94412.41;5153130;27;20030;-78
2024/03/19 08:52:47;;;;;;;17.08;11.80;;;;;;;6.51;83.75;94429.41;5134333;27;20042;-78
2024/03/19 08:55:12;;;;;;;15.40;10.57;;;;;;;6.55;83.81;94431.66;5153190;27;20034;-78
2024/03/19 08:57:41;;;;;;;16.83;11.55;;;;;;;6.65;83.94;94437.75;5117489;27;20037;-78
2024/03/19 09:00:11;;;;;;;16.17;10.60;;;;;;;6.53;83.61;94443.84;5100452;27;20522;-79
2024/03/19 09:02:38;;;;;;;15.35;10.70;;;;;;;6.65;84.16;94431.78;5118281;27;20030;-78
2024/03/19 09:05:05;;;;;;;19.30;14.48;;;;;;;6.71;82.92;94450.25;5134663;27;20038;-78
2024/03/19 09:07:30;;;;;;;30.67;14.48;;;;;;;6.54;82.88;94455.78;5117610;27;20070;-78
2024/03/19 09:09:56;;;;;;;14.05;9.65;;;;;;;6.34;81.69;94462.41;5133770;27;20477;-78
2024/03/19 09:12:21;;;;;;;13.93;12.32;;;;;;;6.36;81.27;94470.03;5134216;27;20056;-78
2024/03/19 09:14:47;;;;;;;13.02;9.00;;;;;;;6.28;81.60;94455.09;5134328;27;20468;-78
2024/03/19 09:17:12;;;;;;;11.73;9.02;;;;;;;6.43;81.54;94472.03;5117133;27;20033;-78
2024/03/19 09:19:41;;;;;;;14.10;9.65;;;;;;;6.44;80.54;94471.13;5134300;27;20027;-78
2024/03/19 09:22:06;;;;;;;23.88;18.00;;;;;;;6.28;81.07;94478.31;5152436;27;20031;-78
2024/03/19 09:24:31;;;;;;;429.50;148.38;;;;;;;6.30;81.52;94481.63;5117122;27;20041;-77
2024/03/19 09:26:57;;;;;;;66.63;30.00;;;;;;;6.32;78.98;94484.91;5134404;27;20404;-78
2024/03/19 09:29:22;;;;;;;52.22;33.60;;;;;;;6.31;79.63;94482.44;5117186;27;20030;-78
2024/03/19 09:31:48;;;;;;;13.75;7.80;;;;;;;6.11;78.30;94476.94;5116736;27;20419;-78
2024/03/19 09:34:13;;;;;;;18.38;14.52;;;;;;;6.30;78.69;94480.81;5117083;27;20030;-78
2024/03/19 09:36:39;;;;;;;13.13;8.50;;;;;;;6.22;78.62;94484.75;5117172;27;20039;-78
2024/03/19 09:39:10;;;;;;;15.98;10.88;;;;;;;6.35;79.24;94479.53;5133961;27;20043;-79
2024/03/19 09:41:42;;;;;;;17.55;11.07;;;;;;;6.34;79.00;94471.91;5117813;27;20034;-79
2024/03/19 09:44:15;;;;;;;16.10;11.38;;;;;;;6.45;80.06;94482.28;5116888;27;20035;-78
2024/03/19 09:46:40;;;;;;;15.07;11.38;;;;;;;6.45;81.74;94475.34;5152936;27;20037;-78
2024/03/19 09:49:05;;;;;;;13.98;10.23;;;;;;;6.57;80.38;94478.78;5117638;27;20412;-78
2024/03/19 09:51:32;;;;;;;15.55;11.38;;;;;;;6.56;80.77;94487.47;5120886;27;20116;-78
2024/03/19 09:53:57;;;;;;;11.00;8.40;;;;;;;6.41;79.16;94488.59;5137915;27;20022;-78
2024/03/19 09:56:23;;;;;;;13.23;9.07;;;;;;;6.51;79.63;94488.75;5120877;27;20033;-78
2024/03/19 09:58:50;;;;;;;18.10;15.27;;;;;;;6.50;80.36;94469.88;5137824;27;20046;-78
2024/03/19 10:01:15;;;;;;;10.68;6.93;;;;;;;6.37;78.13;94482.81;5138037;27;20415;-78
2024/03/19 10:03:42;;;;;;;13.95;10.75;;;;;;;6.57;77.70;94503.78;5120486;27;20038;-78
2024/03/19 10:06:10;;;;;;;11.68;10.13;;;;;;;6.68;75.67;94494.34;5138002;27;20061;-78
2024/03/19 10:08:35;;;;;;;14.43;8.73;;;;;;;6.40;75.17;94479.19;5120935;27;20038;-78
2024/03/19 10:11:01;;;;;;;11.10;7.78;;;;;;;6.44;77.16;94488.38;5120604;27;20031;-77
2024/03/19 10:13:27;;;;;;;9.77;6.72;;;;;;;6.34;75.95;94484.81;5120239;27;20022;-78
2024/03/19 10:15:53;;;;;;;9.07;6.78;;;;;;;6.26;75.81;94481.00;5137743;27;20023;-78
2024/03/19 10:18:19;;;;;;;12.02;7.72;;;;;;;6.28;76.41;94493.81;5137482;27;20031;-79
2024/03/19 10:20:44;;;;;;;17.92;11.82;;;;;;;6.42;76.87;94469.59;5103243;27;20026;-79
2024/03/19 10:23:10;;;;;;;10.48;6.55;;;;;;;6.11;76.29;94452.91;5120004;27;20404;-78
2024/03/19 10:25:37;;;;;;;9.70;6.28;;;;;;;6.52;76.18;94480.06;5156008;27;20023;-79
2024/03/19 10:28:05;;;;;;;12.27;7.38;;;;;;;6.52;76.32;94480.06;5120749;27;20058;-78
2024/03/19 10:30:31;;;;;;;12.15;8.20;;;;;;;6.43;76.55;94476.41;5120131;27;20030;-78
2024/03/19 10:32:56;;;;;;;11.68;8.02;;;;;;;6.13;76.50;94466.50;5155517;27;20092;-78
2024/03/19 10:35:23;;;;;;;19.98;14.45;;;;;;;6.48;77.37;94479.47;5137328;27;20041;-78
2024/03/19 10:37:49;;;;;;;20.08;13.52;;;;;;;6.49;76.52;94481.94;5102780;27;20074;-79
2024/03/19 10:40:16;;;;;;;11.75;7.75;;;;;;;6.62;76.33;94478.47;5119591;27;20037;-78
2024/03/19 10:42:42;;;;;;;13.95;10.35;;;;;;;6.45;77.58;94461.63;5136852;27;20114;-78
2024/03/19 10:45:21;;;;;;;17.90;12.20;;;;;;;6.56;76.23;94473.75;5102897;27;20033;-79
2024/03/19 10:47:51;;;;;;;13.93;9.20;;;;;;;6.65;76.11;94475.66;5102760;27;20038;-79
2024/03/19 10:50:17;;;;;;;14.20;10.27;;;;;;;6.47;76.80;94464.94;5136993;27;20026;-79
2024/03/19 10:53:01;;;;;;;9.73;7.05;;;;;;;6.19;76.01;94477.22;5136812;27;20560;-79
2024/03/19 10:55:27;;;;;;;6.80;5.60;;;;;;;6.26;75.74;94486.16;5119858;27;20023;-78
2024/03/19 10:57:53;;;;;;;7.95;6.10;;;;;;;6.37;75.60;94469.91;5136598;27;20037;-78
2024/03/19 11:00:25;;;;;;;8.23;5.97;;;;;;;6.19;74.81;94477.22;5119581;27;20514;-78
2024/03/19 11:02:50;;;;;;;11.02;8.23;;;;;;;6.31;75.67;94466.97;5136611;27;20551;-79
2024/03/19 11:05:17;;;;;;;11.50;6.80;;;;;;;6.30;76.03;94467.91;5136548;27;20029;-78
2024/03/19 11:08:03;;;;;;;11.30;7.00;;;;;;;6.52;76.97;94460.25;5136317;27;20507;-79
2024/03/19 11:10:33;;;;;;;12.57;9.32;;;;;;;6.55;76.83;94447.13;5136525;27;20058;-79
2024/03/19 11:13:10;;;;;;;9.65;6.32;;;;;;;6.56;74.26;94446.19;5136632;27;20023;-79
2024/03/19 11:15:37;;;;;;;8.32;6.20;;;;;;;6.60;74.13;94445.06;5137736;27;20042;-78
2024/03/19 11:18:11;;;;;;;8.38;6.32;;;;;;;6.98;74.25;94454.28;5136294;27;20556;-79
2024/03/19 11:20:43;;;;;;;9.50;7.20;;;;;;;7.10;73.48;94448.22;5154763;27;20029;-79
2024/03/19 11:23:08;;;;;;;;;;;;;;;6.93;72.45;94454.63;5137388;27;20026;-78
2024/03/19 11:25:33;;;;;;;38.25;16.90;;;;;;;7.04;71.52;94429.78;5119062;27;20359;-79
2024/03/19 11:27:59;;;;;;;8.43;6.40;;;;;;;7.03;72.29;94448.81;5136212;27;20027;-78
2024/03/19 11:30:24;;;;;;;9.27;6.25;;;;;;;6.98;71.76;94441.38;5118643;27;20464;-78